createdAt,value
2019-04-22T00:00:59.498Z,89.80
2019-04-22T00:03:36.862Z,89.40
2019-04-22T00:06:19.077Z,89.60
2019-04-22T00:11:25.949Z,90.30
2019-04-22T00:13:55.557Z,90.60
2019-04-22T00:16:27.953Z,90.70
2019-04-22T00:19:11.361Z,90.70
2019-04-22T00:23:51.978Z,90.80
2019-04-22T00:26:27.615Z,90.80
2019-04-22T00:28:49.715Z,90.90
2019-04-22T00:31:31.662Z,91.00
2019-04-22T00:33:59.161Z,90.90
2019-04-22T00:36:27.557Z,91.00
2019-04-22T00:38:59.082Z,90.90
2019-04-22T00:41:29.782Z,91.00
2019-04-22T00:43:56.929Z,91.00
2019-04-22T00:46:34.557Z,90.70
2019-04-22T00:49:35.580Z,90.90
2019-04-22T00:51:28.619Z,90.90
2019-04-22T00:53:56.115Z,90.90
2019-04-22T00:56:22.070Z,90.80
2019-04-22T00:58:56.069Z,91.00
2019-04-22T01:01:23.722Z,90.80
2019-04-22T01:06:25.775Z,90.80
2019-04-22T01:09:00.402Z,90.80
2019-04-22T01:13:55.745Z,90.60
2019-04-22T01:16:23.966Z,90.70
2019-04-22T01:18:54.881Z,90.90
2019-04-22T01:21:28.798Z,90.90
2019-04-22T01:23:52.233Z,90.90
2019-04-22T01:26:20.265Z,90.90
2019-04-22T01:28:46.113Z,90.90
2019-04-22T01:31:11.674Z,91.00
2019-04-22T01:33:42.031Z,91.10
2019-04-22T01:36:24.619Z,91.40
2019-04-22T01:38:58.361Z,91.30
2019-04-22T01:41:37.639Z,91.30
2019-04-22T01:44:10.543Z,91.10
2019-04-22T01:46:31.431Z,91.30
2019-04-22T01:48:59.558Z,91.40
2019-04-22T01:51:28.533Z,91.10
2019-04-22T01:54:00.534Z,91.10
2019-04-22T01:56:31.316Z,91.20
2019-04-22T01:58:48.298Z,90.80
2019-04-22T02:01:32.435Z,90.90
2019-04-22T02:04:01.268Z,90.60
2019-04-22T02:06:30.262Z,90.90
2019-04-22T02:09:03.759Z,90.90
2019-04-22T02:11:37.347Z,91.00
2019-04-22T02:13:59.192Z,90.80
2019-04-22T02:16:27.391Z,91.10
2019-04-22T02:18:53.104Z,91.10
2019-04-22T02:21:20.447Z,91.30
2019-04-22T02:26:26.044Z,91.40
2019-04-22T02:28:45.839Z,91.30
2019-04-22T02:31:35.944Z,91.10
2019-04-22T02:34:09.310Z,91.40
2019-04-22T02:36:30.319Z,91.40
2019-04-22T02:41:26.184Z,91.40
2019-04-22T02:44:04.059Z,91.40
2019-04-22T02:49:08.550Z,91.20
2019-04-22T02:51:26.148Z,90.90
2019-04-22T03:01:30.059Z,91.20
2019-04-22T03:06:32.887Z,91.30
2019-04-22T03:13:57.821Z,90.80
2019-04-22T03:16:26.532Z,90.70
2019-04-22T03:18:55.047Z,90.50
2019-04-22T03:21:34.409Z,90.50
2019-04-22T03:23:55.679Z,90.60
2019-04-22T03:26:34.775Z,90.80
2019-04-22T03:39:38.471Z,91.40
2019-04-22T03:47:01.946Z,91.30
2019-04-22T03:49:37.081Z,91.50
2019-04-22T03:52:11.283Z,91.60
2019-04-22T03:59:29.536Z,91.20
2019-04-22T04:01:56.142Z,91.10
2019-04-22T04:07:01.785Z,91.10
2019-04-22T04:09:24.233Z,91.10
2019-04-22T04:11:59.991Z,91.20
2019-04-22T04:14:38.105Z,91.10
2019-04-22T04:16:56.138Z,91.20
2019-04-22T04:19:31.372Z,91.20
2019-04-22T04:21:46.991Z,91.30
2019-04-22T04:26:59.177Z,91.30
2019-04-22T04:29:35.681Z,91.10
2019-04-22T04:37:00.029Z,91.30
2019-04-22T04:39:18.831Z,91.50
2019-04-22T04:46:51.619Z,90.60
2019-04-22T04:49:18.536Z,90.80
2019-04-22T04:54:24.192Z,91.20
2019-04-22T05:01:50.338Z,91.60
2019-04-22T05:07:05.273Z,91.30
2019-04-22T05:09:23.832Z,91.30
2019-04-22T05:16:51.543Z,91.10
2019-04-22T05:19:16.043Z,90.30
2019-04-22T05:21:40.526Z,90.80
2019-04-22T05:24:19.822Z,90.50
2019-04-22T05:26:40.054Z,90.20
2019-04-22T05:29:11.091Z,90.40
2019-04-22T05:34:09.673Z,89.60
2019-04-22T05:36:37.983Z,89.00
2019-04-22T05:39:06.125Z,89.20
2019-04-22T05:41:40.146Z,88.70
2019-04-22T05:44:08.277Z,88.20
2019-04-22T05:46:34.369Z,84.20
2019-04-22T05:49:06.039Z,83.80
2019-04-22T05:51:37.039Z,85.40
2019-04-22T05:54:02.578Z,83.00
2019-04-22T05:56:40.820Z,81.10
2019-04-22T05:59:04.612Z,84.10
2019-04-22T06:01:44.963Z,84.20
2019-04-22T06:04:05.333Z,84.10
2019-04-22T06:06:42.992Z,82.80
2019-04-22T06:09:19.247Z,82.90
2019-04-22T06:11:29.110Z,80.10
2019-04-22T06:13:56.137Z,81.20
2019-04-22T06:16:30.848Z,80.30
2019-04-22T06:19:02.671Z,78.40
2019-04-22T06:21:34.968Z,78.70
2019-04-22T06:24:04.852Z,76.20
2019-04-22T06:26:39.382Z,76.90
2019-04-22T06:29:07.002Z,76.20
2019-04-22T06:31:36.958Z,77.20
2019-04-22T06:34:06.228Z,75.30
2019-04-22T06:36:29.304Z,73.10
2019-04-22T06:38:55.313Z,74.30
2019-04-22T06:43:58.399Z,73.00
2019-04-22T06:46:31.066Z,73.20
2019-04-22T06:48:56.396Z,73.70
2019-04-22T06:51:31.010Z,71.90
2019-04-22T06:53:59.029Z,71.40
2019-04-22T06:56:22.361Z,71.10
2019-04-22T06:58:52.360Z,69.20
2019-04-22T07:03:53.645Z,69.30
2019-04-22T07:06:26.507Z,69.40
2019-04-22T07:09:13.926Z,69.50
2019-04-22T07:11:20.522Z,70.00
2019-04-22T07:13:50.318Z,67.00
2019-04-22T07:18:48.725Z,67.00
2019-04-22T07:21:12.399Z,66.30
2019-04-22T07:23:55.165Z,66.60
2019-04-22T07:26:18.297Z,66.70
2019-04-22T07:28:47.588Z,66.40
2019-04-22T07:31:18.988Z,66.20
2019-04-22T07:34:13.687Z,66.40
2019-04-22T07:38:42.537Z,64.50
2019-04-22T07:41:20.084Z,63.70
2019-04-22T07:46:20.626Z,64.50
2019-04-22T07:49:02.122Z,64.80
2019-04-22T07:51:32.776Z,65.80
2019-04-22T07:53:48.993Z,65.80
2019-04-22T07:56:18.699Z,65.80
2019-04-22T07:58:45.382Z,65.70
2019-04-22T08:04:05.226Z,63.80
2019-04-22T08:06:17.343Z,64.40
2019-04-22T08:08:47.545Z,65.00
2019-04-22T08:11:30.098Z,64.90
2019-04-22T08:13:40.697Z,64.30
2019-04-22T08:16:10.532Z,63.80
2019-04-22T08:18:40.625Z,62.60
2019-04-22T08:21:11.589Z,62.50
2019-04-22T08:23:43.295Z,62.20
2019-04-22T08:26:11.131Z,61.90
2019-04-22T08:28:47.836Z,62.10
2019-04-22T08:31:14.521Z,62.20
2019-04-22T08:33:39.794Z,62.70
2019-04-22T08:36:18.039Z,62.00
2019-04-22T08:38:50.665Z,61.20
2019-04-22T08:41:21.224Z,60.40
2019-04-22T08:46:17.095Z,60.10
2019-04-22T08:48:47.061Z,59.90
2019-04-22T08:51:18.518Z,60.00
2019-04-22T08:53:49.935Z,60.00
2019-04-22T09:03:55.972Z,58.50
2019-04-22T09:08:50.484Z,58.10
2019-04-22T09:11:20.333Z,58.30
2019-04-22T09:13:53.184Z,59.00
2019-04-22T09:16:21.888Z,57.90
2019-04-22T09:18:48.310Z,58.10
2019-04-22T09:21:22.775Z,57.80
2019-04-22T09:26:16.650Z,57.40
2019-04-22T09:28:50.938Z,57.40
2019-04-22T09:31:19.539Z,57.80
2019-04-22T09:33:43.076Z,57.30
2019-04-22T09:36:22.702Z,57.30
2019-04-22T09:38:45.447Z,57.50
2019-04-22T09:41:15.320Z,57.30
2019-04-22T09:46:16.640Z,58.20
2019-04-22T09:48:55.356Z,58.10
2019-04-22T09:51:15.024Z,57.30
2019-04-22T09:53:57.009Z,58.00
2019-04-22T09:56:22.422Z,57.60
2019-04-22T09:58:46.434Z,57.20
2019-04-22T10:03:51.129Z,57.20
2019-04-22T10:06:22.786Z,57.50
2019-04-22T10:11:25.204Z,57.10
2019-04-22T10:13:47.847Z,56.10
2019-04-22T10:16:22.669Z,56.30
2019-04-22T10:18:47.560Z,56.80
2019-04-22T10:21:14.461Z,55.80
2019-04-22T10:23:45.842Z,56.10
2019-04-22T10:26:15.974Z,55.90
2019-04-22T10:28:44.609Z,56.10
2019-04-22T10:31:21.892Z,56.40
2019-04-22T10:33:37.719Z,56.80
2019-04-22T10:35:49.664Z,57.20
2019-04-22T10:38:18.562Z,56.90
2019-04-22T10:40:46.832Z,56.30
2019-04-22T10:43:15.086Z,56.40
2019-04-22T10:45:44.023Z,56.20
2019-04-22T10:48:12.360Z,56.40
2019-04-22T10:50:46.600Z,55.80
2019-04-22T10:53:17.676Z,54.90
2019-04-22T10:55:47.798Z,53.90
2019-04-22T10:58:18.138Z,54.20
2019-04-22T11:00:47.215Z,54.70
2019-04-22T11:03:18.069Z,55.10
2019-04-22T11:05:46.366Z,54.50
2019-04-22T11:08:23.042Z,54.80
2019-04-22T11:11:00.662Z,53.00
2019-04-22T11:13:13.764Z,50.70
2019-04-22T11:15:42.832Z,51.20
2019-04-22T11:18:11.492Z,51.70
2019-04-22T11:20:39.780Z,52.70
2019-04-22T11:23:08.830Z,53.30
2019-04-22T11:25:36.878Z,53.30
2019-04-22T11:28:07.526Z,53.50
2019-04-22T11:30:36.731Z,54.20
2019-04-22T11:33:06.778Z,54.80
2019-04-22T11:35:37.520Z,53.70
2019-04-22T11:38:06.642Z,52.30
2019-04-22T11:40:40.563Z,51.50
2019-04-22T11:43:06.499Z,51.80
2019-04-22T11:45:35.266Z,52.50
2019-04-22T11:48:03.578Z,52.80
2019-04-22T11:50:31.330Z,52.70
2019-04-22T11:52:58.936Z,52.70
2019-04-22T11:55:26.996Z,51.50
2019-04-22T11:57:56.234Z,51.10
2019-04-22T12:00:30.774Z,49.80
2019-04-22T12:03:00.837Z,49.50
2019-04-22T12:05:29.908Z,50.20
2019-04-22T12:07:57.672Z,50.50
2019-04-22T12:10:34.646Z,50.60
2019-04-22T12:12:55.536Z,50.20
2019-04-22T12:15:24.659Z,50.50
2019-04-22T12:17:55.303Z,50.50
2019-04-22T12:20:23.413Z,49.90
2019-04-22T12:22:53.416Z,51.00
2019-04-22T12:25:32.005Z,48.20
2019-04-22T12:27:55.140Z,47.40
2019-04-22T12:30:23.649Z,48.90
2019-04-22T12:32:52.530Z,48.60
2019-04-22T12:35:20.682Z,49.40
2019-04-22T12:37:53.927Z,47.50
2019-04-22T12:40:30.912Z,46.90
2019-04-22T12:42:49.129Z,47.90
2019-04-22T12:45:18.358Z,46.80
2019-04-22T12:47:46.391Z,47.20
2019-04-22T12:50:24.103Z,47.30
2019-04-22T12:52:54.706Z,46.40
2019-04-22T12:55:17.849Z,45.80
2019-04-22T12:57:46.409Z,45.10
2019-04-22T13:00:15.740Z,45.80
2019-04-22T13:02:44.904Z,44.80
2019-04-22T13:05:14.293Z,43.70
2019-04-22T13:07:42.060Z,42.60
2019-04-22T13:10:13.644Z,43.20
2019-04-22T13:12:42.782Z,43.60
2019-04-22T13:15:11.824Z,44.40
2019-04-22T13:17:39.943Z,44.90
2019-04-22T13:20:11.416Z,45.00
2019-04-22T13:22:38.863Z,44.20
2019-04-22T13:25:10.202Z,44.00
2019-04-22T13:27:39.274Z,43.40
2019-04-22T13:30:10.097Z,41.90
2019-04-22T13:32:38.885Z,41.30
2019-04-22T13:35:08.749Z,42.20
2019-04-22T13:37:41.099Z,42.40
2019-04-22T13:40:10.731Z,42.50
2019-04-22T13:42:38.708Z,42.00
2019-04-22T13:45:07.706Z,42.00
2019-04-22T13:47:55.707Z,42.00
2019-04-22T13:50:43.737Z,42.60
2019-04-22T13:55:41.885Z,42.40
2019-04-22T13:57:52.358Z,40.60
2019-04-22T14:00:11.419Z,43.40
2019-04-22T14:03:08.824Z,44.20
2019-04-22T14:05:37.498Z,44.80
2019-04-22T14:08:07.874Z,45.10
2019-04-22T14:10:34.684Z,46.10
2019-04-22T14:13:03.706Z,46.00
2019-04-22T14:15:31.943Z,46.10
2019-04-22T14:18:00.981Z,46.40
2019-04-22T14:20:30.899Z,46.00
2019-04-22T14:23:02.639Z,46.00
2019-04-22T14:25:30.507Z,46.40
2019-04-22T14:28:02.538Z,44.90
2019-04-22T14:30:28.637Z,44.20
2019-04-22T14:32:56.229Z,43.90
2019-04-22T14:35:24.999Z,43.70
2019-04-22T14:37:54.488Z,43.20
2019-04-22T14:40:23.041Z,43.30
2019-04-22T14:43:13.214Z,43.20
2019-04-22T14:45:58.734Z,43.40
2019-04-22T14:48:13.728Z,42.10
2019-04-22T14:50:41.434Z,41.00
2019-04-22T14:53:08.081Z,40.70
2019-04-22T14:55:25.089Z,39.10
2019-04-22T14:57:50.960Z,37.80
2019-04-22T15:00:20.397Z,37.00
2019-04-22T15:02:49.809Z,36.10
2019-04-22T15:05:19.829Z,36.10
2019-04-22T15:07:47.794Z,36.00
2019-04-22T15:10:15.856Z,36.10
2019-04-22T15:12:49.742Z,36.20
2019-04-22T15:15:43.190Z,36.30
2019-04-22T15:18:11.896Z,36.10
2019-04-22T15:20:52.340Z,36.90
2019-04-22T15:23:20.268Z,36.60
2019-04-22T15:25:48.398Z,37.20
2019-04-22T15:28:17.447Z,37.90
2019-04-22T15:30:47.809Z,38.60
2019-04-22T15:33:17.274Z,39.20
2019-04-22T15:35:45.217Z,39.90
2019-04-22T15:38:13.244Z,39.90
2019-04-22T15:40:40.926Z,38.60
2019-04-22T15:43:08.814Z,38.40
2019-04-22T15:45:36.803Z,38.40
2019-04-22T15:48:06.019Z,38.40
2019-04-22T15:50:36.927Z,37.30
2019-04-22T15:53:04.691Z,38.10
2019-04-22T15:55:32.603Z,39.40
2019-04-22T15:58:01.817Z,40.90
2019-04-22T16:00:42.185Z,41.90
2019-04-22T16:03:06.083Z,40.50
2019-04-22T16:05:32.235Z,39.70
2019-04-22T16:08:04.279Z,39.60
2019-04-22T16:10:31.888Z,40.20
2019-04-22T16:13:07.286Z,40.50
2019-04-22T16:15:31.343Z,40.70
2019-04-22T16:18:01.570Z,41.10
2019-04-22T16:20:30.049Z,41.20
2019-04-22T16:23:22.342Z,41.30
2019-04-22T16:25:55.494Z,41.80
2019-04-22T16:28:24.972Z,42.50
2019-04-22T16:30:53.317Z,42.50
2019-04-22T16:33:21.676Z,43.30
2019-04-22T16:35:50.853Z,43.60
2019-04-22T16:38:19.169Z,44.00
2019-04-22T16:40:48.457Z,44.00
2019-04-22T16:43:16.587Z,44.50
2019-04-22T16:45:45.506Z,44.60
2019-04-22T16:48:13.754Z,45.00
2019-04-22T16:50:43.256Z,44.90
2019-04-22T16:53:13.814Z,45.30
2019-04-22T16:55:41.088Z,45.50
2019-04-22T16:58:10.536Z,45.70
2019-04-22T17:00:40.707Z,45.70
2019-04-22T17:03:26.839Z,45.60
2019-04-22T17:06:13.790Z,46.00
2019-04-22T17:08:42.545Z,46.20
2019-04-22T17:11:11.654Z,46.80
2019-04-22T17:13:40.386Z,46.70
2019-04-22T17:16:09.915Z,46.90
2019-04-22T17:18:39.409Z,46.80
2019-04-22T17:21:09.205Z,47.40
2019-04-22T17:23:45.699Z,47.60
2019-04-22T17:26:14.699Z,48.10
2019-04-22T17:28:43.730Z,48.20
2019-04-22T17:31:12.880Z,48.30
2019-04-22T17:33:41.190Z,48.60
2019-04-22T17:36:09.297Z,48.90
2019-04-22T17:38:50.389Z,48.50
2019-04-22T17:41:20.766Z,48.70
2019-04-22T17:44:00.420Z,48.70
2019-04-22T17:46:46.313Z,48.80
2019-04-22T17:49:35.546Z,49.10
2019-04-22T17:52:18.972Z,48.60
2019-04-22T17:54:42.062Z,48.30
2019-04-22T17:57:09.837Z,47.90
2019-04-22T17:59:39.142Z,47.60
2019-04-22T18:02:06.459Z,46.80
2019-04-22T18:04:20.003Z,46.10
2019-04-22T18:07:15.591Z,45.80
2019-04-22T18:10:10.746Z,45.40
2019-04-22T18:12:11.545Z,45.40
2019-04-22T18:17:14.378Z,44.90
2019-04-22T18:19:36.344Z,44.80
2019-04-22T18:22:01.206Z,44.80
2019-04-22T18:24:24.280Z,44.40
2019-04-22T18:27:06.990Z,44.00
2019-04-22T18:29:35.969Z,43.80
2019-04-22T18:31:55.559Z,43.50
2019-04-22T18:34:26.635Z,43.30
2019-04-22T18:36:59.063Z,43.60
2019-04-22T18:39:38.900Z,43.60
2019-04-22T18:42:00.578Z,43.30
2019-04-22T18:44:32.689Z,43.50
2019-04-22T18:47:01.264Z,42.90
2019-04-22T18:49:31.804Z,42.90
2019-04-22T18:52:22.762Z,43.20
2019-04-22T18:55:04.134Z,43.40
2019-04-22T18:57:46.060Z,43.50
2019-04-22T19:00:04.240Z,43.50
2019-04-22T19:02:34.084Z,43.40
2019-04-22T19:05:14.893Z,43.70
2019-04-22T19:08:05.583Z,43.80
2019-04-22T19:10:30.870Z,44.00
2019-04-22T19:13:20.520Z,44.00
2019-04-22T19:15:25.484Z,43.80
2019-04-22T19:17:55.246Z,43.80
2019-04-22T19:20:29.522Z,43.80
2019-04-22T19:22:52.034Z,44.00
2019-04-22T19:25:11.697Z,44.00
2019-04-22T19:27:45.240Z,44.10
2019-04-22T19:30:16.007Z,44.30
2019-04-22T19:32:51.709Z,44.50
2019-04-22T19:35:15.678Z,44.80
2019-04-22T19:37:43.874Z,45.00
2019-04-22T19:40:24.067Z,45.20
2019-04-22T19:42:52.266Z,45.30
2019-04-22T19:45:10.679Z,45.50
2019-04-22T19:47:53.206Z,45.90
2019-04-22T19:50:16.295Z,46.10
2019-04-22T19:52:44.672Z,46.40
2019-04-22T19:55:12.301Z,46.40
2019-04-22T19:57:42.272Z,46.70
2019-04-22T20:00:18.458Z,46.80
2019-04-22T20:03:16.641Z,47.20
2019-04-22T20:05:48.056Z,47.60
2019-04-22T20:08:21.236Z,47.90
2019-04-22T20:10:46.682Z,48.30
2019-04-22T20:13:20.912Z,48.50
2019-04-22T20:15:38.722Z,48.80
2019-04-22T20:18:29.707Z,48.90
2019-04-22T20:20:46.517Z,49.10
2019-04-22T20:23:12.376Z,49.30
2019-04-22T20:25:40.743Z,49.00
2019-04-22T20:28:15.083Z,49.10
2019-04-22T20:30:47.451Z,48.70
2019-04-22T20:33:08.749Z,48.40
2019-04-22T20:35:43.509Z,48.80
2019-04-22T20:38:16.869Z,48.20
2019-04-22T20:40:39.997Z,48.10
2019-04-22T20:43:14.999Z,48.10
2019-04-22T20:45:39.586Z,48.10
2019-04-22T20:48:03.912Z,47.90
2019-04-22T20:50:41.370Z,47.50
2019-04-22T20:53:11.569Z,47.60
2019-04-22T20:55:42.174Z,47.10
2019-04-22T20:58:11.744Z,47.00
2019-04-22T21:00:36.535Z,46.90
2019-04-22T21:02:59.742Z,46.70
2019-04-22T21:05:34.524Z,46.80
2019-04-22T21:08:11.529Z,46.50
2019-04-22T21:10:35.971Z,46.40
2019-04-22T21:13:03.396Z,46.50
2019-04-22T21:15:44.212Z,46.00
2019-04-22T21:18:08.354Z,46.20
2019-04-22T21:20:47.785Z,46.20
2019-04-22T21:23:14.680Z,46.30
2019-04-22T21:25:30.799Z,46.40
2019-04-22T21:28:11.318Z,46.50
2019-04-22T21:30:38.857Z,46.50
2019-04-22T21:33:04.153Z,46.20
2019-04-22T21:35:55.059Z,45.00
2019-04-22T21:38:08.654Z,45.50
2019-04-22T21:40:36.099Z,46.00
2019-04-22T21:43:12.162Z,45.70
2019-04-22T21:45:31.102Z,46.00
2019-04-22T21:48:18.233Z,46.30
2019-04-22T21:50:50.188Z,46.20
2019-04-22T21:53:12.796Z,46.30
2019-04-22T21:55:37.837Z,46.40
2019-04-22T21:58:26.134Z,46.40
2019-04-22T22:01:19.000Z,46.60
2019-04-22T22:03:50.343Z,46.70
2019-04-22T22:06:12.415Z,46.80
2019-04-22T22:08:51.280Z,47.00
2019-04-22T22:11:18.588Z,46.90
2019-04-22T22:13:45.417Z,47.00
2019-04-22T22:16:14.373Z,47.10
2019-04-22T22:18:52.917Z,47.30
2019-04-22T22:21:36.362Z,47.10
2019-04-22T22:23:50.063Z,47.10
2019-04-22T22:26:09.458Z,47.10
2019-04-22T22:29:05.228Z,47.20
2019-04-22T22:31:22.544Z,47.30
2019-04-22T22:33:43.436Z,47.20
2019-04-22T22:36:12.016Z,47.30
2019-04-22T22:38:34.995Z,47.40
2019-04-22T22:40:54.101Z,47.50
2019-04-22T22:43:30.166Z,47.30
2019-04-22T22:46:03.195Z,47.50
2019-04-22T22:48:43.365Z,47.40
2019-04-22T22:51:09.666Z,47.50
2019-04-22T22:53:46.332Z,47.50
2019-04-22T22:56:14.209Z,47.70
2019-04-22T22:58:41.358Z,47.60
2019-04-22T23:01:04.440Z,47.60
2019-04-22T23:06:15.761Z,47.70
2019-04-22T23:08:38.273Z,47.30
2019-04-22T23:11:12.070Z,46.20
2019-04-22T23:13:40.396Z,45.80
2019-04-22T23:16:01.621Z,45.40
2019-04-22T23:18:16.233Z,45.50
2019-04-22T23:20:47.679Z,44.90
2019-04-22T23:23:35.607Z,44.50
2019-04-22T23:26:11.862Z,44.50
2019-04-22T23:28:37.164Z,44.90
2019-04-22T23:31:35.508Z,43.80
2019-04-22T23:34:15.853Z,43.80
2019-04-22T23:37:07.251Z,43.40
2019-04-22T23:39:41.969Z,42.90
2019-04-22T23:42:15.949Z,42.50
2019-04-22T23:44:39.595Z,42.60
2019-04-22T23:47:07.221Z,41.70
2019-04-22T23:49:32.677Z,41.40
2019-04-22T23:52:10.182Z,41.10
2019-04-22T23:54:43.569Z,41.50
2019-04-22T23:57:03.188Z,41.20
2019-04-22T23:59:47.855Z,40.70
